createdAt,value
2018-07-02T00:00:40.166Z,0
2018-07-02T00:01:49.027Z,0
2018-07-02T00:02:58.347Z,0
2018-07-02T00:04:07.209Z,0
2018-07-02T00:05:16.072Z,0
2018-07-02T00:06:25.004Z,0
2018-07-02T00:07:33.882Z,0
2018-07-02T00:08:42.899Z,0
2018-07-02T00:09:51.761Z,0
2018-07-02T00:11:00.930Z,0
2018-07-02T00:12:09.795Z,0
2018-07-02T00:13:18.655Z,0
2018-07-02T00:14:27.572Z,0
2018-07-02T00:15:36.437Z,0
2018-07-02T00:16:45.301Z,0
2018-07-02T00:17:54.161Z,0
2018-07-02T00:19:03.023Z,0
2018-07-02T00:20:12.241Z,0
2018-07-02T00:21:21.098Z,0
2018-07-02T00:22:29.962Z,0
2018-07-02T00:23:38.825Z,0
2018-07-02T00:24:47.684Z,0
2018-07-02T00:25:57.110Z,0
2018-07-02T00:27:05.970Z,0
2018-07-02T00:28:14.829Z,0
2018-07-02T00:29:23.692Z,0
2018-07-02T00:30:32.559Z,0
2018-07-02T00:31:41.496Z,0
2018-07-02T00:32:50.717Z,0
2018-07-02T00:34:00.782Z,0
2018-07-02T00:35:10.817Z,0
2018-07-02T00:36:19.677Z,0
2018-07-02T00:37:28.788Z,0
2018-07-02T00:38:37.648Z,0
2018-07-02T00:39:46.512Z,0
2018-07-02T00:40:55.680Z,0
2018-07-02T00:42:04.544Z,0
2018-07-02T00:43:13.459Z,0
2018-07-02T00:44:22.319Z,0
2018-07-02T00:45:31.179Z,0
2018-07-02T00:46:40.048Z,0
2018-07-02T00:47:49.820Z,0
2018-07-02T00:48:59.578Z,0
2018-07-02T00:50:09.057Z,0
2018-07-02T00:51:17.923Z,0
2018-07-02T00:52:26.781Z,0
2018-07-02T00:53:35.645Z,0
2018-07-02T00:54:44.654Z,0
2018-07-02T00:55:53.513Z,0
2018-07-02T00:57:02.373Z,0
2018-07-02T00:58:11.879Z,0
2018-07-02T00:59:20.731Z,0
2018-07-02T01:00:30.458Z,0
2018-07-02T01:01:39.918Z,0
2018-07-02T01:02:48.784Z,0
2018-07-02T01:03:57.645Z,0
2018-07-02T01:05:06.810Z,0
2018-07-02T01:06:15.822Z,0
2018-07-02T01:07:24.683Z,0
2018-07-02T01:08:33.841Z,0
2018-07-02T01:09:42.707Z,0
2018-07-02T01:10:51.896Z,0
2018-07-02T01:12:00.960Z,0
2018-07-02T01:13:11.267Z,0
2018-07-02T01:14:20.128Z,0
2018-07-02T01:15:28.991Z,0
2018-07-02T01:16:38.176Z,0
2018-07-02T01:17:47.348Z,0
2018-07-02T01:18:56.211Z,0
2018-07-02T01:20:05.072Z,0
2018-07-02T01:21:13.932Z,0
2018-07-02T01:22:22.791Z,0
2018-07-02T01:23:31.904Z,0
2018-07-02T01:24:40.769Z,0
2018-07-02T01:25:49.628Z,0
2018-07-02T01:26:58.490Z,0
2018-07-02T01:28:07.353Z,0
2018-07-02T01:29:16.212Z,0
2018-07-02T01:30:25.076Z,0
2018-07-02T01:31:34.561Z,0
2018-07-02T01:32:43.731Z,0
2018-07-02T01:33:52.591Z,0
2018-07-02T01:35:01.501Z,0
2018-07-02T01:36:10.366Z,0
2018-07-02T01:37:19.227Z,0
2018-07-02T01:38:28.088Z,0
2018-07-02T01:39:36.949Z,0
2018-07-02T01:40:46.161Z,0
2018-07-02T01:41:55.023Z,0
2018-07-02T01:43:03.886Z,0
2018-07-02T01:44:12.744Z,0
2018-07-02T01:45:21.916Z,0
2018-07-02T01:46:31.889Z,0
2018-07-02T01:47:40.750Z,0
2018-07-02T01:48:49.611Z,0
2018-07-02T01:49:58.470Z,0
2018-07-02T01:51:07.634Z,0
2018-07-02T01:52:16.497Z,0
2018-07-02T01:53:25.363Z,0
2018-07-02T01:54:34.223Z,0
2018-07-02T01:55:43.083Z,0
2018-07-02T01:56:52.863Z,0
2018-07-02T01:58:01.824Z,0
2018-07-02T01:59:10.685Z,0
2018-07-02T02:00:19.545Z,0
2018-07-02T02:01:28.407Z,0
2018-07-02T02:02:37.268Z,0
2018-07-02T02:03:46.178Z,0
2018-07-02T02:04:55.040Z,0
2018-07-02T02:06:03.901Z,0
2018-07-02T02:07:12.762Z,0
2018-07-02T02:08:21.619Z,0
2018-07-02T02:09:30.532Z,0
2018-07-02T02:10:39.393Z,0
2018-07-02T02:11:48.255Z,0
2018-07-02T02:12:57.792Z,0
2018-07-02T02:14:06.662Z,0
2018-07-02T02:15:16.572Z,0
2018-07-02T02:16:25.740Z,0
2018-07-02T02:17:34.608Z,0
2018-07-02T02:18:43.769Z,0
2018-07-02T02:19:52.930Z,0
2018-07-02T02:21:01.790Z,4
2018-07-02T02:22:10.652Z,4
2018-07-02T02:23:19.513Z,0
2018-07-02T02:24:28.373Z,0
2018-07-02T02:25:37.236Z,4
2018-07-02T02:26:46.144Z,4
2018-07-02T02:27:55.296Z,0
2018-07-02T02:29:04.156Z,4
2018-07-02T02:30:13.023Z,4
2018-07-02T02:31:22.208Z,4
2018-07-02T02:32:31.162Z,8
2018-07-02T02:33:40.313Z,4
2018-07-02T02:34:49.489Z,4
2018-07-02T02:35:58.946Z,8
2018-07-02T02:37:08.421Z,8
2018-07-02T02:38:17.344Z,12
2018-07-02T02:39:26.491Z,12
2018-07-02T02:40:35.649Z,12
2018-07-02T02:41:45.346Z,16
2018-07-02T02:42:54.498Z,20
2018-07-02T02:44:04.078Z,20
2018-07-02T02:45:13.272Z,24
2018-07-02T02:46:22.750Z,24
2018-07-02T02:47:31.904Z,24
2018-07-02T02:48:41.357Z,32
2018-07-02T02:49:51.497Z,36
2018-07-02T02:51:00.978Z,40
2018-07-02T02:52:09.837Z,40
2018-07-02T02:53:18.986Z,48
2018-07-02T02:54:27.848Z,52
2018-07-02T02:55:37.008Z,60
2018-07-02T02:56:46.161Z,64
2018-07-02T02:57:55.021Z,72
2018-07-02T02:59:04.558Z,76
2018-07-02T03:00:13.715Z,84
2018-07-02T03:01:22.625Z,92
2018-07-02T03:02:31.776Z,100
2018-07-02T03:03:40.641Z,112
2018-07-02T03:04:49.800Z,120
2018-07-02T03:05:58.952Z,128
2018-07-02T03:07:08.277Z,140
2018-07-02T03:08:18.135Z,148
2018-07-02T03:09:28.101Z,160
2018-07-02T03:10:37.946Z,176
2018-07-02T03:11:46.814Z,184
2018-07-02T03:12:55.715Z,196
2018-07-02T03:14:04.577Z,208
2018-07-02T03:15:13.438Z,220
2018-07-02T03:16:23.205Z,232
2018-07-02T03:17:32.069Z,248
2018-07-02T03:18:40.978Z,260
2018-07-02T03:19:49.836Z,272
2018-07-02T03:20:58.998Z,288
2018-07-02T03:22:07.862Z,304
2018-07-02T03:23:16.728Z,320
2018-07-02T03:24:25.698Z,328
2018-07-02T03:25:34.844Z,348
2018-07-02T03:26:44.837Z,364
2018-07-02T03:27:54.392Z,376
2018-07-02T03:29:03.265Z,392
2018-07-02T03:30:12.784Z,408
2018-07-02T03:31:21.961Z,424
2018-07-02T03:32:30.823Z,436
2018-07-02T03:33:39.683Z,456
2018-07-02T03:34:48.546Z,468
2018-07-02T03:35:57.556Z,484
2018-07-02T03:37:06.417Z,500
2018-07-02T03:38:15.275Z,516
2018-07-02T03:39:24.451Z,532
2018-07-02T03:40:33.310Z,544
2018-07-02T03:41:42.557Z,560
2018-07-02T03:42:52.185Z,576
2018-07-02T03:44:01.361Z,592
2018-07-02T03:45:10.223Z,604
2018-07-02T03:46:19.085Z,616
2018-07-02T03:47:28.355Z,632
2018-07-02T03:48:37.534Z,644
2018-07-02T03:49:46.978Z,660
2018-07-02T03:50:56.161Z,672
2018-07-02T03:52:06.369Z,684
2018-07-02T03:53:15.221Z,696
2018-07-02T03:54:24.393Z,712
2018-07-02T03:55:33.254Z,724
2018-07-02T03:56:42.113Z,736
2018-07-02T03:57:50.976Z,744
2018-07-02T03:58:59.986Z,756
2018-07-02T04:00:08.848Z,768
2018-07-02T04:01:17.724Z,780
2018-07-02T04:02:26.570Z,792
2018-07-02T04:03:35.724Z,804
2018-07-02T04:04:44.732Z,816
2018-07-02T04:05:53.892Z,828
2018-07-02T04:07:02.755Z,836
2018-07-02T04:08:11.925Z,848
2018-07-02T04:09:21.541Z,856
2018-07-02T04:10:30.503Z,864
2018-07-02T04:11:39.681Z,872
2018-07-02T04:12:48.544Z,884
2018-07-02T04:13:57.401Z,892
2018-07-02T04:15:06.262Z,900
2018-07-02T04:16:15.277Z,912
2018-07-02T04:17:24.134Z,920
2018-07-02T04:18:32.993Z,928
2018-07-02T04:19:41.853Z,936
2018-07-02T04:20:50.710Z,944
2018-07-02T04:22:00.045Z,948
2018-07-02T04:23:09.220Z,956
2018-07-02T04:24:18.386Z,964
2018-07-02T04:25:27.248Z,972
2018-07-02T04:26:36.112Z,976
2018-07-02T04:27:44.966Z,984
2018-07-02T04:28:53.826Z,992
2018-07-02T04:30:02.684Z,996
2018-07-02T04:31:11.545Z,1008
2018-07-02T04:32:20.405Z,1012
2018-07-02T04:33:29.316Z,1020
2018-07-02T04:34:38.177Z,1024
2018-07-02T04:35:47.328Z,1032
2018-07-02T04:36:56.187Z,1036
2018-07-02T04:38:05.046Z,1044
2018-07-02T04:39:14.058Z,1048
2018-07-02T04:40:23.037Z,1052
2018-07-02T04:41:32.403Z,1056
2018-07-02T04:42:41.260Z,1064
2018-07-02T04:43:50.120Z,1068
2018-07-02T04:44:59.429Z,1072
2018-07-02T04:46:09.024Z,1076
2018-07-02T04:47:17.883Z,1080
2018-07-02T04:48:26.745Z,1084
2018-07-02T04:49:35.605Z,1092
2018-07-02T04:50:44.516Z,1092
2018-07-02T04:51:53.376Z,1100
2018-07-02T04:53:02.238Z,1100
2018-07-02T04:54:11.096Z,1108
2018-07-02T04:55:19.959Z,1112
2018-07-02T04:56:29.814Z,1116
2018-07-02T04:57:38.728Z,1120
2018-07-02T04:58:48.408Z,1120
2018-07-02T04:59:57.267Z,1132
2018-07-02T05:01:06.407Z,1128
2018-07-02T05:02:15.618Z,1136
2018-07-02T05:03:24.478Z,1136
2018-07-02T05:04:33.610Z,1140
2018-07-02T05:05:42.469Z,1144
2018-07-02T05:06:51.336Z,1144
2018-07-02T05:08:00.623Z,1148
2018-07-02T05:09:09.484Z,1152
2018-07-02T05:10:18.345Z,1152
2018-07-02T05:11:27.205Z,1160
2018-07-02T05:12:36.065Z,1164
2018-07-02T05:13:44.925Z,1168
2018-07-02T05:14:53.785Z,1168
2018-07-02T05:16:02.665Z,1172
2018-07-02T05:17:12.082Z,1172
2018-07-02T05:18:20.936Z,1180
2018-07-02T05:19:30.090Z,1188
2018-07-02T05:20:38.954Z,1184
2018-07-02T05:21:48.136Z,1188
2018-07-02T05:22:56.996Z,1188
2018-07-02T05:24:05.859Z,1196
2018-07-02T05:25:14.995Z,1196
2018-07-02T05:26:23.855Z,1196
2018-07-02T05:27:32.994Z,1196
2018-07-02T05:28:41.857Z,1200
2018-07-02T05:29:51.000Z,1208
2018-07-02T05:30:59.860Z,1208
2018-07-02T05:32:08.748Z,1212
2018-07-02T05:33:17.977Z,1212
2018-07-02T05:34:26.894Z,1216
2018-07-02T05:35:35.771Z,1216
2018-07-02T05:36:44.759Z,1216
2018-07-02T05:37:53.686Z,1220
2018-07-02T05:39:03.067Z,1224
2018-07-02T05:40:11.959Z,1224
2018-07-02T05:41:21.101Z,1224
2018-07-02T05:42:29.966Z,1228
2018-07-02T05:43:38.841Z,1232
2018-07-02T05:44:47.803Z,1232
2018-07-02T05:45:56.661Z,1240
2018-07-02T05:47:13.273Z,1240
2018-07-02T05:48:26.067Z,1236
2018-07-02T05:49:50.007Z,1244
2018-07-02T05:51:05.170Z,1240
2018-07-02T05:52:17.343Z,1244
2018-07-02T05:53:29.330Z,1252
2018-07-02T05:54:43.496Z,1252
2018-07-02T05:55:58.525Z,1256
2018-07-02T05:57:20.962Z,1252
2018-07-02T05:58:38.058Z,1252
2018-07-02T05:59:54.817Z,1256
2018-07-02T06:01:09.294Z,1264
2018-07-02T06:02:18.157Z,1260
2018-07-02T06:03:27.378Z,1264
2018-07-02T06:04:36.939Z,1264
2018-07-02T06:05:46.147Z,1268
2018-07-02T06:06:55.206Z,1264
2018-07-02T06:08:04.269Z,1276
2018-07-02T06:09:13.804Z,1272
2018-07-02T06:10:23.548Z,1264
2018-07-02T06:11:32.609Z,1272
2018-07-02T06:12:41.907Z,1268
2018-07-02T06:13:50.772Z,1268
2018-07-02T06:14:59.651Z,1272
2018-07-02T06:16:08.495Z,1272
2018-07-02T06:17:17.412Z,1284
2018-07-02T06:18:26.549Z,1276
2018-07-02T06:19:35.418Z,1276
2018-07-02T06:20:44.275Z,1276
2018-07-02T06:21:53.421Z,1276
2018-07-02T06:23:02.382Z,1284
2018-07-02T06:24:11.244Z,1284
2018-07-02T06:25:20.381Z,1284
2018-07-02T06:26:29.243Z,1284
2018-07-02T06:27:38.377Z,1288
2018-07-02T06:28:47.393Z,1288
2018-07-02T06:29:56.822Z,1288
2018-07-02T06:31:05.689Z,1288
2018-07-02T06:32:14.551Z,1292
2018-07-02T06:33:23.440Z,1292
2018-07-02T06:34:32.498Z,1296
2018-07-02T06:35:41.643Z,1296
2018-07-02T06:36:50.502Z,1296
2018-07-02T06:37:59.642Z,1296
2018-07-02T06:39:08.509Z,1296
2018-07-02T06:40:17.570Z,1300
2018-07-02T06:41:26.432Z,1300
2018-07-02T06:42:35.300Z,1304
2018-07-02T06:43:44.438Z,1300
2018-07-02T06:44:53.299Z,1304
2018-07-02T06:46:02.441Z,1304
2018-07-02T06:47:11.580Z,1308
2018-07-02T06:48:20.447Z,1308
2018-07-02T06:49:29.306Z,1308
2018-07-02T06:50:38.171Z,1312
2018-07-02T06:51:48.008Z,1312
2018-07-02T06:52:56.909Z,1316
2018-07-02T06:54:05.784Z,1312
2018-07-02T06:55:14.926Z,1312
2018-07-02T06:56:23.796Z,1312
2018-07-02T06:57:32.809Z,1316
2018-07-02T06:58:42.069Z,1320
2018-07-02T06:59:51.225Z,1320
2018-07-02T07:01:00.363Z,1316
2018-07-02T07:02:09.225Z,1316
2018-07-02T07:03:18.191Z,1320
2018-07-02T07:04:27.054Z,1324
2018-07-02T07:05:35.918Z,1320
2018-07-02T07:06:44.782Z,1316
2018-07-02T07:07:53.643Z,1320
2018-07-02T07:09:02.606Z,1324
2018-07-02T07:10:11.470Z,1324
2018-07-02T07:11:20.335Z,1328
2018-07-02T07:12:29.515Z,1332
2018-07-02T07:13:38.379Z,1336
2018-07-02T07:14:47.494Z,1336
2018-07-02T07:15:56.364Z,1340
2018-07-02T07:17:05.505Z,1340
2018-07-02T07:18:14.364Z,1340
2018-07-02T07:19:23.227Z,1340
2018-07-02T07:20:32.618Z,1340
2018-07-02T07:21:41.768Z,1348
2018-07-02T07:22:50.635Z,1348
2018-07-02T07:23:59.496Z,1352
2018-07-02T07:25:08.360Z,1356
2018-07-02T07:26:17.600Z,1360
2018-07-02T07:27:26.492Z,1360
2018-07-02T07:28:35.638Z,1364
2018-07-02T07:29:44.505Z,1360
2018-07-02T07:30:53.364Z,1360
2018-07-02T07:32:02.327Z,1364
2018-07-02T07:33:11.192Z,1364
2018-07-02T07:34:20.060Z,1364
2018-07-02T07:35:28.919Z,1368
2018-07-02T07:36:37.781Z,1372
2018-07-02T07:37:47.344Z,1372
2018-07-02T07:38:56.211Z,1380
2018-07-02T07:40:05.355Z,1380
2018-07-02T07:41:14.218Z,1388
2018-07-02T07:42:23.080Z,1388
2018-07-02T07:43:32.001Z,1384
2018-07-02T07:44:40.867Z,1388
2018-07-02T07:45:50.050Z,1388
2018-07-02T07:46:59.190Z,1400
2018-07-02T07:48:08.052Z,1388
2018-07-02T07:49:17.023Z,1396
2018-07-02T07:50:25.886Z,1396
2018-07-02T07:51:34.768Z,1392
2018-07-02T07:52:43.632Z,1396
2018-07-02T07:53:52.492Z,1408
2018-07-02T07:55:01.681Z,1400
2018-07-02T07:56:10.549Z,1400
2018-07-02T07:57:19.688Z,1400
2018-07-02T07:58:29.107Z,1408
2018-07-02T07:59:37.979Z,1408
2018-07-02T08:00:47.560Z,1412
2018-07-02T08:01:56.427Z,1412
2018-07-02T08:03:05.857Z,1416
2018-07-02T08:04:15.291Z,1424
2018-07-02T08:05:24.159Z,1424
2018-07-02T08:06:33.488Z,1428
2018-07-02T08:07:42.350Z,1420
2018-07-02T08:08:51.229Z,1428
2018-07-02T08:10:00.098Z,1424
2018-07-02T08:11:09.306Z,1436
2018-07-02T08:12:18.311Z,1432
2018-07-02T08:13:27.537Z,1432
2018-07-02T08:14:36.400Z,1432
2018-07-02T08:15:45.274Z,1436
2018-07-02T08:16:54.621Z,1444
2018-07-02T08:18:04.257Z,1436
2018-07-02T08:19:13.154Z,1440
2018-07-02T08:20:21.981Z,1436
2018-07-02T08:21:30.845Z,1444
2018-07-02T08:22:39.892Z,1444
2018-07-02T08:23:49.383Z,1444
2018-07-02T08:24:58.249Z,1440
2018-07-02T08:26:07.110Z,1444
2018-07-02T08:27:16.028Z,1452
2018-07-02T08:28:24.846Z,1460
2018-07-02T08:29:34.039Z,1456
2018-07-02T08:30:42.905Z,1460
2018-07-02T08:31:52.054Z,1464
2018-07-02T08:33:01.412Z,1464
2018-07-02T08:34:10.608Z,1476
2018-07-02T08:35:20.175Z,1480
2018-07-02T08:36:29.040Z,1476
2018-07-02T08:37:37.958Z,1480
2018-07-02T08:38:47.098Z,1488
2018-07-02T08:39:55.964Z,1484
2018-07-02T08:41:05.354Z,1492
2018-07-02T08:42:14.234Z,1496
2018-07-02T08:43:23.391Z,1496
2018-07-02T08:44:32.265Z,1504
2018-07-02T08:45:41.178Z,1504
2018-07-02T08:46:50.152Z,1508
2018-07-02T08:47:59.400Z,1512
2018-07-02T08:49:08.281Z,1512
2018-07-02T08:50:17.231Z,1512
2018-07-02T08:51:26.100Z,1512
2018-07-02T08:52:35.018Z,1516
2018-07-02T08:53:44.161Z,1520
2018-07-02T08:54:53.025Z,1524
2018-07-02T08:56:01.890Z,1528
2018-07-02T08:57:10.768Z,1536
2018-07-02T08:58:20.167Z,1536
2018-07-02T08:59:28.922Z,1544
2018-07-02T09:00:38.072Z,1544
2018-07-02T09:01:47.218Z,1548
2018-07-02T09:02:56.638Z,1552
2018-07-02T09:04:05.860Z,1556
2018-07-02T09:05:14.724Z,1556
2018-07-02T09:06:23.863Z,1560
2018-07-02T09:07:32.728Z,1560
2018-07-02T09:08:42.145Z,1564
2018-07-02T09:09:51.158Z,1572
2018-07-02T09:11:00.031Z,1572
2018-07-02T09:12:08.901Z,1576
2018-07-02T09:13:17.766Z,1576
2018-07-02T09:14:26.628Z,1584
2018-07-02T09:15:36.131Z,1588
2018-07-02T09:16:44.993Z,1592
2018-07-02T09:17:53.860Z,1600
2018-07-02T09:19:02.999Z,1604
2018-07-02T09:20:11.865Z,1600
2018-07-02T09:21:20.829Z,1612
2018-07-02T09:22:29.969Z,1608
2018-07-02T09:23:38.837Z,1608
2018-07-02T09:24:47.989Z,1616
2018-07-02T09:25:56.853Z,1620
2018-07-02T09:27:06.095Z,1624
2018-07-02T09:28:15.611Z,1628
2018-07-02T09:29:24.473Z,1628
2018-07-02T09:30:33.343Z,1636
2018-07-02T09:31:42.205Z,1640
2018-07-02T09:32:51.071Z,1648
2018-07-02T09:34:00.500Z,1640
2018-07-02T09:35:09.644Z,1704
2018-07-02T09:36:18.600Z,1712
2018-07-02T09:37:27.382Z,1712
2018-07-02T09:38:36.347Z,1716
2018-07-02T09:39:45.214Z,1720
2018-07-02T09:40:54.633Z,1728
2018-07-02T09:42:03.507Z,1728
2018-07-02T09:43:12.376Z,1736
2018-07-02T09:44:21.516Z,1740
2018-07-02T09:45:30.663Z,1744
2018-07-02T09:46:40.094Z,1744
2018-07-02T09:47:48.959Z,1748
2018-07-02T09:48:58.099Z,1756
2018-07-02T09:50:06.964Z,1764
2018-07-02T09:51:16.108Z,1772
2018-07-02T09:52:24.976Z,1776
2018-07-02T09:53:33.834Z,1780
2018-07-02T09:54:42.699Z,1780
2018-07-02T09:55:51.577Z,1788
2018-07-02T09:57:00.441Z,1792
2018-07-02T09:58:09.309Z,1812
2018-07-02T09:59:18.176Z,1804
2018-07-02T10:00:27.322Z,1816
2018-07-02T10:01:36.643Z,1828
2018-07-02T10:02:45.392Z,1832
2018-07-02T10:03:54.257Z,1836
2018-07-02T10:05:03.120Z,1844
2018-07-02T10:06:11.988Z,1844
2018-07-02T10:07:20.877Z,1852
2018-07-02T10:08:29.744Z,1860
2018-07-02T10:09:38.810Z,1852
2018-07-02T10:10:47.677Z,1860
2018-07-02T10:11:56.544Z,1868
2018-07-02T10:13:05.688Z,1884
2018-07-02T10:14:14.554Z,1884
2018-07-02T10:15:23.572Z,1884
2018-07-02T10:16:32.437Z,1892
2018-07-02T10:17:41.468Z,1904
2018-07-02T10:18:50.360Z,1908
2018-07-02T10:19:59.689Z,1912
2018-07-02T10:21:09.177Z,1916
2018-07-02T10:22:18.159Z,1920
2018-07-02T10:23:27.059Z,1924
2018-07-02T10:24:35.892Z,1928
2018-07-02T10:25:45.033Z,1928
2018-07-02T10:26:54.149Z,1932
2018-07-02T10:28:03.019Z,1940
2018-07-02T10:29:11.901Z,1948
2018-07-02T10:30:20.755Z,1952
2018-07-02T10:31:29.633Z,1964
2018-07-02T10:32:39.164Z,1964
2018-07-02T10:33:48.022Z,1964
2018-07-02T10:34:57.693Z,1968
2018-07-02T10:36:06.841Z,1972
2018-07-02T10:37:15.706Z,1976
2018-07-02T10:38:24.773Z,1980
2018-07-02T10:39:33.916Z,1988
2018-07-02T10:40:42.784Z,1996
2018-07-02T10:41:51.657Z,2008
2018-07-02T10:43:00.795Z,2012
2018-07-02T10:44:10.013Z,2016
2018-07-02T10:45:18.881Z,2020
2018-07-02T10:46:27.746Z,2032
2018-07-02T10:47:36.665Z,2032
2018-07-02T10:48:45.529Z,2040
2018-07-02T10:49:54.645Z,2052
2018-07-02T10:51:03.509Z,2060
2018-07-02T10:52:12.656Z,2068
2018-07-02T10:53:21.520Z,2080
2018-07-02T10:54:30.396Z,2092
2018-07-02T10:55:40.091Z,2100
2018-07-02T10:56:49.323Z,2112
2018-07-02T10:57:58.229Z,2124
2018-07-02T10:59:07.093Z,2132
2018-07-02T11:00:16.241Z,2140
2018-07-02T11:01:25.292Z,2156
2018-07-02T11:02:34.440Z,2156
2018-07-02T11:03:43.357Z,2168
2018-07-02T11:04:52.226Z,2180
2018-07-02T11:06:01.096Z,2188
2018-07-02T11:07:10.589Z,2196
2018-07-02T11:08:19.454Z,2204
2018-07-02T11:09:28.597Z,2212
2018-07-02T11:10:37.463Z,2220
2018-07-02T11:11:46.326Z,2236
2018-07-02T11:12:55.529Z,2244
2018-07-02T11:14:04.503Z,2248
2018-07-02T11:15:13.371Z,2264
2018-07-02T11:16:22.235Z,2276
2018-07-02T11:17:31.102Z,2288
2018-07-02T11:18:40.391Z,2296
2018-07-02T11:19:49.256Z,2300
2018-07-02T11:20:58.121Z,2308
2018-07-02T11:22:07.261Z,2316
2018-07-02T11:23:16.243Z,2324
2018-07-02T11:24:26.455Z,2332
2018-07-02T11:25:35.318Z,2344
2018-07-02T11:26:44.188Z,2348
2018-07-02T11:27:53.057Z,2356
2018-07-02T11:29:01.927Z,2368
2018-07-02T11:30:11.159Z,2380
2018-07-02T11:31:20.299Z,2384
2018-07-02T11:32:29.165Z,2396
2018-07-02T11:33:38.032Z,2400
2018-07-02T11:34:46.898Z,2416
2018-07-02T11:35:55.813Z,2356
2018-07-02T11:37:04.686Z,2372
2018-07-02T11:38:13.553Z,2384
2018-07-02T11:39:22.417Z,2404
2018-07-02T11:40:31.286Z,2420
2018-07-02T11:41:40.251Z,2428
2018-07-02T11:42:49.117Z,2440
2018-07-02T11:43:57.980Z,2452
2018-07-02T11:45:07.124Z,2468
2018-07-02T11:46:15.989Z,2476
2018-07-02T11:47:24.955Z,2496
2018-07-02T11:48:34.099Z,2556
2018-07-02T11:49:43.027Z,2648
2018-07-02T11:50:51.848Z,2760
2018-07-02T11:52:00.716Z,2920
2018-07-02T11:53:09.630Z,3096
2018-07-02T11:54:18.498Z,3304
2018-07-02T11:55:27.365Z,3540
2018-07-02T11:56:36.235Z,3752
2018-07-02T11:57:45.103Z,4056
2018-07-02T11:58:54.219Z,5096
2018-07-02T12:00:03.367Z,37504
2018-07-02T12:01:12.236Z,81792
2018-07-02T12:02:21.108Z,79712
2018-07-02T12:03:29.975Z,77856
2018-07-02T12:04:38.942Z,81984
2018-07-02T12:05:47.811Z,82656
2018-07-02T12:06:56.957Z,80320
2018-07-02T12:08:05.826Z,75488
2018-07-02T12:09:14.697Z,71616
2018-07-02T12:10:23.568Z,80608
2018-07-02T12:11:32.437Z,89760
2018-07-02T12:12:41.310Z,89440
2018-07-02T12:13:50.182Z,86016
2018-07-02T12:14:59.338Z,83552
2018-07-02T12:16:08.566Z,79712
2018-07-02T12:17:17.439Z,79680
2018-07-02T12:18:26.313Z,83648
2018-07-02T12:19:35.825Z,90080
2018-07-02T12:20:44.704Z,89408
2018-07-02T12:21:54.106Z,84064
2018-07-02T12:23:03.259Z,81920
2018-07-02T12:24:12.134Z,83456
2018-07-02T12:25:21.011Z,87232
2018-07-02T12:26:30.435Z,92704
2018-07-02T12:27:39.308Z,88800
2018-07-02T12:28:48.183Z,88128
2018-07-02T12:29:57.109Z,85792
2018-07-02T12:31:05.985Z,87232
2018-07-02T12:32:15.139Z,96064
2018-07-02T12:33:24.358Z,101344
2018-07-02T12:34:33.461Z,95136
2018-07-02T12:35:42.614Z,82272
2018-07-02T12:36:51.768Z,76192
2018-07-02T12:38:00.931Z,81472
2018-07-02T12:39:09.854Z,79744
2018-07-02T12:40:19.012Z,88320
2018-07-02T12:41:27.888Z,98688
2018-07-02T12:42:37.052Z,89568
2018-07-02T12:43:45.924Z,68768
2018-07-02T12:44:54.952Z,55936
2018-07-02T12:46:03.837Z,53856
2018-07-02T12:47:12.987Z,65536
2018-07-02T12:48:21.866Z,57856
2018-07-02T12:49:31.020Z,65408
2018-07-02T12:50:40.058Z,74592
2018-07-02T12:51:48.938Z,82400
2018-07-02T12:52:57.818Z,78624
2018-07-02T12:54:06.813Z,83648
2018-07-02T12:55:16.022Z,85312
2018-07-02T12:56:25.178Z,89120
2018-07-02T12:57:34.341Z,91552
2018-07-02T12:58:43.221Z,89184
2018-07-02T12:59:52.424Z,87360
2018-07-02T13:01:01.306Z,77536
2018-07-02T13:02:10.451Z,76448
2018-07-02T13:03:19.317Z,86912
2018-07-02T13:04:28.199Z,82400
2018-07-02T13:05:37.078Z,78016
2018-07-02T13:06:45.958Z,81920
2018-07-02T13:07:54.990Z,82688
2018-07-02T13:09:03.872Z,80800
2018-07-02T13:10:12.754Z,78944
2018-07-02T13:11:21.909Z,85856
2018-07-02T13:12:30.791Z,89184
2018-07-02T13:13:40.714Z,96032
2018-07-02T13:14:49.878Z,96672
2018-07-02T13:15:58.762Z,89696
2018-07-02T13:17:07.643Z,88960
2018-07-02T13:18:17.091Z,92320
2018-07-02T13:19:26.018Z,90208
2018-07-02T13:20:35.184Z,93216
2018-07-02T13:21:44.073Z,91840
2018-07-02T13:22:52.952Z,92320
2018-07-02T13:24:02.142Z,89184
2018-07-02T13:25:11.373Z,91072
2018-07-02T13:26:20.810Z,90528
2018-07-02T13:27:29.695Z,90048
2018-07-02T13:28:38.584Z,92064
2018-07-02T13:29:47.456Z,94560
2018-07-02T13:30:56.438Z,94784
2018-07-02T13:32:05.318Z,97600
2018-07-02T13:33:14.560Z,94208
2018-07-02T13:34:23.508Z,84416
2018-07-02T13:35:32.392Z,88064
2018-07-02T13:36:41.728Z,88544
2018-07-02T13:37:50.652Z,100608
2018-07-02T13:38:59.577Z,96064
2018-07-02T13:40:08.467Z,90816
2018-07-02T13:41:17.624Z,88064
2018-07-02T13:42:27.033Z,88128
2018-07-02T13:43:36.269Z,92800
2018-07-02T13:44:45.152Z,86816
2018-07-02T13:45:54.124Z,83968
2018-07-02T13:47:03.283Z,86592
2018-07-02T13:48:12.543Z,91744
2018-07-02T13:49:21.426Z,92352
2018-07-02T13:50:30.319Z,89152
2018-07-02T13:51:39.208Z,90144
2018-07-02T13:52:48.092Z,90432
2018-07-02T13:53:57.127Z,85888
2018-07-02T13:55:06.564Z,85216
2018-07-02T13:56:15.484Z,88000
2018-07-02T13:57:24.365Z,88832
2018-07-02T13:58:33.248Z,92256
2018-07-02T13:59:42.560Z,95296
2018-07-02T14:00:51.458Z,99968
2018-07-02T14:02:00.619Z,97536
2018-07-02T14:03:09.505Z,90432
2018-07-02T14:04:18.669Z,92832
2018-07-02T14:05:27.978Z,95488
2018-07-02T14:06:36.860Z,93056
2018-07-02T14:07:45.743Z,91936
2018-07-02T14:08:54.629Z,92544
2018-07-02T14:10:03.788Z,94048
2018-07-02T14:11:12.947Z,88672
2018-07-02T14:12:21.842Z,87808
2018-07-02T14:13:30.726Z,89056
2018-07-02T14:14:39.675Z,91744
2018-07-02T14:15:48.494Z,88768
2018-07-02T14:16:57.381Z,87168
2018-07-02T14:18:06.261Z,89120
2018-07-02T14:19:15.428Z,87520
2018-07-02T14:20:24.310Z,85888
2018-07-02T14:21:33.194Z,85152
2018-07-02T14:22:42.461Z,83136
2018-07-02T14:23:51.622Z,84288
2018-07-02T14:25:00.500Z,89120
2018-07-02T14:26:09.388Z,89312
2018-07-02T14:27:18.645Z,86720
2018-07-02T14:28:27.505Z,85664
2018-07-02T14:29:36.388Z,87808
2018-07-02T14:30:45.273Z,88544
2018-07-02T14:31:54.437Z,87264
2018-07-02T14:33:04.182Z,85024
2018-07-02T14:34:13.263Z,83712
2018-07-02T14:35:22.434Z,81472
2018-07-02T14:36:31.589Z,81824
2018-07-02T14:37:41.022Z,84512
2018-07-02T14:38:50.183Z,82912
2018-07-02T14:39:59.219Z,82880
2018-07-02T14:41:08.106Z,83584
2018-07-02T14:42:16.987Z,81152
2018-07-02T14:43:25.871Z,81504
2018-07-02T14:44:35.064Z,85056
2018-07-02T14:45:44.267Z,87040
2018-07-02T14:46:53.149Z,86720
2018-07-02T14:48:02.040Z,87136
2018-07-02T14:49:11.482Z,81952
2018-07-02T14:50:20.381Z,78208
2018-07-02T14:51:30.032Z,84512
2018-07-02T14:52:40.100Z,87712
2018-07-02T14:53:48.982Z,87456
2018-07-02T14:54:57.865Z,86368
2018-07-02T14:56:07.035Z,88480
2018-07-02T14:57:15.973Z,88416
2018-07-02T14:58:24.862Z,87392
2018-07-02T14:59:34.026Z,87648
2018-07-02T15:00:42.912Z,87968
2018-07-02T15:01:51.794Z,87424
2018-07-02T15:03:00.778Z,85792
2018-07-02T15:04:09.664Z,84768
2018-07-02T15:05:18.548Z,81600
2018-07-02T15:06:27.429Z,79872
2018-07-02T15:07:36.312Z,78784
2018-07-02T15:08:45.671Z,74752
2018-07-02T15:09:54.830Z,49536
2018-07-02T15:11:03.713Z,64768
2018-07-02T15:12:12.602Z,71968
2018-07-02T15:13:21.483Z,82368
2018-07-02T15:14:30.414Z,79968
2018-07-02T15:15:39.351Z,65472
2018-07-02T15:16:48.186Z,63360
2018-07-02T15:17:57.343Z,55680
2018-07-02T15:19:06.229Z,73696
2018-07-02T15:20:15.532Z,85664
2018-07-02T15:21:24.477Z,88320
2018-07-02T15:22:33.387Z,86592
2018-07-02T15:23:42.713Z,80896
2018-07-02T15:24:51.624Z,79328
2018-07-02T15:26:00.635Z,79040
2018-07-02T15:27:09.743Z,78624
2018-07-02T15:28:18.836Z,78496
2018-07-02T15:29:28.313Z,77856
2018-07-02T15:30:38.080Z,76800
2018-07-02T15:31:48.537Z,78240
2018-07-02T15:32:58.256Z,79008